sensor_id;sensor_type;location;lat;lon;timestamp;temperature;humidity
9305;DHT22;4690;52.422;13.486;2023-02-28T00:05:54;1.60;99.90
9305;DHT22;4690;52.422;13.486;2023-02-28T00:08:20;1.60;99.90
9305;DHT22;4690;52.422;13.486;2023-02-28T00:10:45;1.60;99.90
9305;DHT22;4690;52.422;13.486;2023-02-28T00:13:11;1.50;99.90
9305;DHT22;4690;52.422;13.486;2023-02-28T00:15:37;1.60;99.90
9305;DHT22;4690;52.422;13.486;2023-02-28T00:18:03;1.60;99.90
9305;DHT22;4690;52.422;13.486;2023-02-28T00:20:29;1.60;99.90
9305;DHT22;4690;52.422;13.486;2023-02-28T00:22:55;1.50;99.90
9305;DHT22;4690;52.422;13.486;2023-02-28T00:25:24;1.60;99.90
9305;DHT22;4690;52.422;13.486;2023-02-28T00:27:51;1.60;99.90
9305;DHT22;4690;52.422;13.486;2023-02-28T00:30:19;1.50;99.90
9305;DHT22;4690;52.422;13.486;2023-02-28T00:32:47;1.50;99.90
9305;DHT22;4690;52.422;13.486;2023-02-28T00:35:14;1.60;99.90
9305;DHT22;4690;52.422;13.486;2023-02-28T00:37:41;1.60;99.90
9305;DHT22;4690;52.422;13.486;2023-02-28T00:40:08;1.50;99.90
9305;DHT22;4690;52.422;13.486;2023-02-28T00:42:35;1.50;99.90
9305;DHT22;4690;52.422;13.486;2023-02-28T00:45:01;1.50;99.90
9305;DHT22;4690;52.422;13.486;2023-02-28T00:47:30;1.50;99.90
9305;DHT22;4690;52.422;13.486;2023-02-28T00:49:56;1.50;99.90
9305;DHT22;4690;52.422;13.486;2023-02-28T00:52:22;1.50;99.90
9305;DHT22;4690;52.422;13.486;2023-02-28T00:54:47;1.50;99.90
9305;DHT22;4690;52.422;13.486;2023-02-28T00:57:13;1.50;99.90
9305;DHT22;4690;52.422;13.486;2023-02-28T00:59:39;1.50;99.90
9305;DHT22;4690;52.422;13.486;2023-02-28T01:02:05;1.50;99.90
9305;DHT22;4690;52.422;13.486;2023-02-28T01:04:31;1.50;99.90
9305;DHT22;4690;52.422;13.486;2023-02-28T01:06:56;1.60;99.90
9305;DHT22;4690;52.422;13.486;2023-02-28T01:09:22;1.50;99.90
9305;DHT22;4690;52.422;13.486;2023-02-28T01:11:48;1.40;99.90
9305;DHT22;4690;52.422;13.486;2023-02-28T01:14:15;1.50;99.90
9305;DHT22;4690;52.422;13.486;2023-02-28T01:16:43;1.50;99.90
9305;DHT22;4690;52.422;13.486;2023-02-28T01:19:09;1.50;99.90
9305;DHT22;4690;52.422;13.486;2023-02-28T01:21:35;1.50;99.90
9305;DHT22;4690;52.422;13.486;2023-02-28T01:24:02;1.40;99.90
9305;DHT22;4690;52.422;13.486;2023-02-28T01:26:29;1.40;99.90
9305;DHT22;4690;52.422;13.486;2023-02-28T01:28:55;1.30;99.90
9305;DHT22;4690;52.422;13.486;2023-02-28T01:31:21;1.30;99.90
9305;DHT22;4690;52.422;13.486;2023-02-28T01:33:48;1.30;99.90
9305;DHT22;4690;52.422;13.486;2023-02-28T01:36:18;1.30;99.90
9305;DHT22;4690;52.422;13.486;2023-02-28T01:38:47;1.20;99.90
9305;DHT22;4690;52.422;13.486;2023-02-28T01:41:25;1.10;99.90
9305;DHT22;4690;52.422;13.486;2023-02-28T01:44:05;1.10;99.90
9305;DHT22;4690;52.422;13.486;2023-02-28T01:46:49;0.90;99.90
9305;DHT22;4690;52.422;13.486;2023-02-28T01:49:17;1.00;99.90
9305;DHT22;4690;52.422;13.486;2023-02-28T01:51:45;0.90;99.90
9305;DHT22;4690;52.422;13.486;2023-02-28T01:54:25;0.80;99.90
9305;DHT22;4690;52.422;13.486;2023-02-28T01:57:05;0.80;99.90
9305;DHT22;4690;52.422;13.486;2023-02-28T01:59:37;0.80;99.90
9305;DHT22;4690;52.422;13.486;2023-02-28T02:02:18;0.70;99.90
9305;DHT22;4690;52.422;13.486;2023-02-28T02:05:08;0.70;99.90
9305;DHT22;4690;52.422;13.486;2023-02-28T02:07:39;0.70;99.90
9305;DHT22;4690;52.422;13.486;2023-02-28T02:10:12;0.60;99.90
9305;DHT22;4690;52.422;13.486;2023-02-28T02:16:30;0.60;99.90
9305;DHT22;4690;52.422;13.486;2023-02-28T02:22:36;0.60;99.90
9305;DHT22;4690;52.422;13.486;2023-02-28T02:25:42;0.60;99.90
9305;DHT22;4690;52.422;13.486;2023-02-28T02:31:38;0.50;99.90
9305;DHT22;4690;52.422;13.486;2023-02-28T02:40:30;0.30;99.90
9305;DHT22;4690;52.422;13.486;2023-02-28T02:43:15;0.30;99.90
9305;DHT22;4690;52.422;13.486;2023-02-28T02:45:53;0.20;99.90
9305;DHT22;4690;52.422;13.486;2023-02-28T02:48:30;0.10;99.90
9305;DHT22;4690;52.422;13.486;2023-02-28T02:51:01;0.00;99.90
9305;DHT22;4690;52.422;13.486;2023-02-28T02:53:42;0.00;99.90
9305;DHT22;4690;52.422;13.486;2023-02-28T02:56:19;-0.10;99.90
9305;DHT22;4690;52.422;13.486;2023-02-28T02:58:50;-0.20;99.90
9305;DHT22;4690;52.422;13.486;2023-02-28T03:01:20;-0.20;99.90
9305;DHT22;4690;52.422;13.486;2023-02-28T03:03:58;-0.20;99.90
9305;DHT22;4690;52.422;13.486;2023-02-28T03:06:28;-0.20;99.90
9305;DHT22;4690;52.422;13.486;2023-02-28T03:08:54;-0.30;99.90
9305;DHT22;4690;52.422;13.486;2023-02-28T03:11:20;-0.30;99.90
9305;DHT22;4690;52.422;13.486;2023-02-28T03:25:21;-0.50;99.90
9305;DHT22;4690;52.422;13.486;2023-02-28T03:28:05;-0.50;99.90
9305;DHT22;4690;52.422;13.486;2023-02-28T03:31:13;-0.60;99.90
9305;DHT22;4690;52.422;13.486;2023-02-28T03:33:51;-0.60;99.90
9305;DHT22;4690;52.422;13.486;2023-02-28T03:36:37;-0.60;99.90
9305;DHT22;4690;52.422;13.486;2023-02-28T03:39:22;-0.60;99.90
9305;DHT22;4690;52.422;13.486;2023-02-28T03:42:02;-0.70;99.90
9305;DHT22;4690;52.422;13.486;2023-02-28T03:44:43;-0.70;99.90
9305;DHT22;4690;52.422;13.486;2023-02-28T03:47:17;-0.70;99.90
9305;DHT22;4690;52.422;13.486;2023-02-28T03:50:01;-0.70;99.90
9305;DHT22;4690;52.422;13.486;2023-02-28T03:52:37;-0.80;99.90
9305;DHT22;4690;52.422;13.486;2023-02-28T03:55:11;-0.80;99.90
9305;DHT22;4690;52.422;13.486;2023-02-28T03:58:05;-0.80;99.90
9305;DHT22;4690;52.422;13.486;2023-02-28T04:00:49;-0.80;99.90
9305;DHT22;4690;52.422;13.486;2023-02-28T04:03:21;-0.90;99.90
9305;DHT22;4690;52.422;13.486;2023-02-28T04:05:53;-0.90;99.90
9305;DHT22;4690;52.422;13.486;2023-02-28T04:08:21;-0.90;99.90
9305;DHT22;4690;52.422;13.486;2023-02-28T04:13:48;-1.00;99.90
9305;DHT22;4690;52.422;13.486;2023-02-28T04:16:14;-1.00;99.90
9305;DHT22;4690;52.422;13.486;2023-02-28T04:18:43;-1.10;99.90
9305;DHT22;4690;52.422;13.486;2023-02-28T04:21:10;-1.10;99.90
9305;DHT22;4690;52.422;13.486;2023-02-28T04:23:37;-1.10;99.90
9305;DHT22;4690;52.422;13.486;2023-02-28T04:26:03;-1.10;99.90
9305;DHT22;4690;52.422;13.486;2023-02-28T04:28:29;-1.10;99.90
9305;DHT22;4690;52.422;13.486;2023-02-28T04:30:56;-1.20;99.90
9305;DHT22;4690;52.422;13.486;2023-02-28T04:33:23;-1.20;99.90
9305;DHT22;4690;52.422;13.486;2023-02-28T04:35:58;-1.20;99.90
9305;DHT22;4690;52.422;13.486;2023-02-28T04:38:25;-1.20;99.90
9305;DHT22;4690;52.422;13.486;2023-02-28T04:40:51;-1.20;99.90
9305;DHT22;4690;52.422;13.486;2023-02-28T04:43:16;-1.20;99.90
9305;DHT22;4690;52.422;13.486;2023-02-28T04:45:42;-1.20;99.90
9305;DHT22;4690;52.422;13.486;2023-02-28T04:48:08;-1.30;99.90
9305;DHT22;4690;52.422;13.486;2023-02-28T04:50:34;-1.30;99.90
9305;DHT22;4690;52.422;13.486;2023-02-28T04:52:59;-1.30;99.90
9305;DHT22;4690;52.422;13.486;2023-02-28T04:55:25;-1.30;99.90
9305;DHT22;4690;52.422;13.486;2023-02-28T04:57:51;-1.30;99.90
9305;DHT22;4690;52.422;13.486;2023-02-28T05:00:17;-1.30;99.90
9305;DHT22;4690;52.422;13.486;2023-02-28T05:02:43;-1.30;99.90
9305;DHT22;4690;52.422;13.486;2023-02-28T05:05:08;-1.40;99.90
9305;DHT22;4690;52.422;13.486;2023-02-28T05:07:34;-1.40;99.90
9305;DHT22;4690;52.422;13.486;2023-02-28T05:10:00;-1.40;99.90
9305;DHT22;4690;52.422;13.486;2023-02-28T05:12:26;-1.50;99.90
9305;DHT22;4690;52.422;13.486;2023-02-28T05:14:51;-1.40;99.90
9305;DHT22;4690;52.422;13.486;2023-02-28T05:17:17;-1.50;99.90
9305;DHT22;4690;52.422;13.486;2023-02-28T05:19:43;-1.50;99.90
9305;DHT22;4690;52.422;13.486;2023-02-28T05:22:15;-1.50;99.90
9305;DHT22;4690;52.422;13.486;2023-02-28T05:24:42;-1.50;99.90
9305;DHT22;4690;52.422;13.486;2023-02-28T05:27:08;-1.60;99.90
9305;DHT22;4690;52.422;13.486;2023-02-28T05:29:35;-1.60;99.90
9305;DHT22;4690;52.422;13.486;2023-02-28T05:32:08;-1.60;99.90
9305;DHT22;4690;52.422;13.486;2023-02-28T05:34:39;-1.70;99.90
9305;DHT22;4690;52.422;13.486;2023-02-28T05:37:09;-1.70;99.90
9305;DHT22;4690;52.422;13.486;2023-02-28T05:39:37;-1.70;99.90
9305;DHT22;4690;52.422;13.486;2023-02-28T05:42:04;-1.70;99.90
9305;DHT22;4690;52.422;13.486;2023-02-28T05:44:30;-1.70;99.90
9305;DHT22;4690;52.422;13.486;2023-02-28T05:46:56;-1.80;99.90
9305;DHT22;4690;52.422;13.486;2023-02-28T05:49:22;-1.80;99.90
9305;DHT22;4690;52.422;13.486;2023-02-28T05:51:47;-1.80;99.90
9305;DHT22;4690;52.422;13.486;2023-02-28T05:54:13;-1.80;99.90
9305;DHT22;4690;52.422;13.486;2023-02-28T05:56:39;-1.80;99.90
9305;DHT22;4690;52.422;13.486;2023-02-28T05:59:06;-1.80;99.90
9305;DHT22;4690;52.422;13.486;2023-02-28T06:01:36;-1.80;99.90
9305;DHT22;4690;52.422;13.486;2023-02-28T06:04:06;-1.80;99.90
9305;DHT22;4690;52.422;13.486;2023-02-28T06:06:34;-1.80;99.90
9305;DHT22;4690;52.422;13.486;2023-02-28T06:09:05;-1.80;99.90
9305;DHT22;4690;52.422;13.486;2023-02-28T06:11:31;-1.80;99.90
9305;DHT22;4690;52.422;13.486;2023-02-28T06:13:58;-1.80;99.90
9305;DHT22;4690;52.422;13.486;2023-02-28T06:16:29;-1.80;99.90
9305;DHT22;4690;52.422;13.486;2023-02-28T06:19:00;-1.80;99.90
9305;DHT22;4690;52.422;13.486;2023-02-28T06:21:28;-1.80;99.90
9305;DHT22;4690;52.422;13.486;2023-02-28T06:23:56;-1.70;99.90
9305;DHT22;4690;52.422;13.486;2023-02-28T06:26:23;-1.70;99.90
9305;DHT22;4690;52.422;13.486;2023-02-28T06:28:49;-1.70;99.90
9305;DHT22;4690;52.422;13.486;2023-02-28T06:31:17;-1.70;99.90
9305;DHT22;4690;52.422;13.486;2023-02-28T06:33:44;-1.60;99.90
9305;DHT22;4690;52.422;13.486;2023-02-28T06:36:12;-1.50;99.90
9305;DHT22;4690;52.422;13.486;2023-02-28T06:38:39;-1.40;99.90
9305;DHT22;4690;52.422;13.486;2023-02-28T06:41:06;-1.30;99.90
9305;DHT22;4690;52.422;13.486;2023-02-28T06:43:35;-1.20;99.90
9305;DHT22;4690;52.422;13.486;2023-02-28T06:46:05;-1.10;99.90
9305;DHT22;4690;52.422;13.486;2023-02-28T06:48:32;-1.00;99.90
9305;DHT22;4690;52.422;13.486;2023-02-28T06:51:18;-0.90;99.90
9305;DHT22;4690;52.422;13.486;2023-02-28T06:53:47;-0.80;99.90
9305;DHT22;4690;52.422;13.486;2023-02-28T06:56:15;-0.60;99.90
9305;DHT22;4690;52.422;13.486;2023-02-28T06:58:46;-0.40;99.90
9305;DHT22;4690;52.422;13.486;2023-02-28T07:01:14;-0.30;99.90
9305;DHT22;4690;52.422;13.486;2023-02-28T07:03:40;-0.10;99.90
9305;DHT22;4690;52.422;13.486;2023-02-28T07:06:06;0.20;99.90
9305;DHT22;4690;52.422;13.486;2023-02-28T07:08:33;0.60;99.90
9305;DHT22;4690;52.422;13.486;2023-02-28T07:10:59;0.80;99.90
9305;DHT22;4690;52.422;13.486;2023-02-28T07:13:25;1.00;99.90
9305;DHT22;4690;52.422;13.486;2023-02-28T07:15:56;1.00;99.90
9305;DHT22;4690;52.422;13.486;2023-02-28T07:18:27;1.30;99.90
9305;DHT22;4690;52.422;13.486;2023-02-28T07:20:53;1.70;99.90
9305;DHT22;4690;52.422;13.486;2023-02-28T07:23:19;1.80;99.90
9305;DHT22;4690;52.422;13.486;2023-02-28T07:25:45;2.10;99.90
9305;DHT22;4690;52.422;13.486;2023-02-28T07:28:13;2.10;99.90
9305;DHT22;4690;52.422;13.486;2023-02-28T07:30:40;2.20;99.90
9305;DHT22;4690;52.422;13.486;2023-02-28T07:33:06;2.60;99.90
9305;DHT22;4690;52.422;13.486;2023-02-28T07:35:32;2.60;99.90
9305;DHT22;4690;52.422;13.486;2023-02-28T07:37:59;2.80;99.90
9305;DHT22;4690;52.422;13.486;2023-02-28T07:40:25;3.10;99.90
9305;DHT22;4690;52.422;13.486;2023-02-28T07:42:51;3.20;99.90
9305;DHT22;4690;52.422;13.486;2023-02-28T07:45:17;3.40;99.90
9305;DHT22;4690;52.422;13.486;2023-02-28T07:47:45;3.10;99.90
9305;DHT22;4690;52.422;13.486;2023-02-28T07:50:13;3.00;99.90
9305;DHT22;4690;52.422;13.486;2023-02-28T07:52:41;3.00;99.90
9305;DHT22;4690;52.422;13.486;2023-02-28T07:55:08;3.10;99.90
9305;DHT22;4690;52.422;13.486;2023-02-28T07:57:35;3.20;99.90
9305;DHT22;4690;52.422;13.486;2023-02-28T08:00:02;3.20;99.90
9305;DHT22;4690;52.422;13.486;2023-02-28T08:02:30;2.90;99.90
9305;DHT22;4690;52.422;13.486;2023-02-28T08:04:55;2.90;99.90
9305;DHT22;4690;52.422;13.486;2023-02-28T08:07:21;2.90;99.90
9305;DHT22;4690;52.422;13.486;2023-02-28T08:09:47;2.90;99.90
9305;DHT22;4690;52.422;13.486;2023-02-28T08:12:13;2.90;99.90
9305;DHT22;4690;52.422;13.486;2023-02-28T08:14:39;3.00;99.90
9305;DHT22;4690;52.422;13.486;2023-02-28T08:17:05;3.40;99.90
9305;DHT22;4690;52.422;13.486;2023-02-28T08:19:31;3.70;99.90
9305;DHT22;4690;52.422;13.486;2023-02-28T08:21:57;4.00;99.90
9305;DHT22;4690;52.422;13.486;2023-02-28T08:24:23;4.10;99.90
9305;DHT22;4690;52.422;13.486;2023-02-28T08:26:49;4.40;99.90
9305;DHT22;4690;52.422;13.486;2023-02-28T08:29:15;4.60;99.90
9305;DHT22;4690;52.422;13.486;2023-02-28T08:31:41;4.50;99.90
9305;DHT22;4690;52.422;13.486;2023-02-28T08:34:13;4.80;99.90
9305;DHT22;4690;52.422;13.486;2023-02-28T08:36:41;4.60;99.90
9305;DHT22;4690;52.422;13.486;2023-02-28T08:39:08;4.40;99.90
9305;DHT22;4690;52.422;13.486;2023-02-28T08:41:34;4.80;99.90
9305;DHT22;4690;52.422;13.486;2023-02-28T08:44:00;5.20;99.90
9305;DHT22;4690;52.422;13.486;2023-02-28T08:46:26;5.40;99.90
9305;DHT22;4690;52.422;13.486;2023-02-28T08:48:54;5.50;99.90
9305;DHT22;4690;52.422;13.486;2023-02-28T08:51:22;5.40;99.90
9305;DHT22;4690;52.422;13.486;2023-02-28T08:54:00;5.50;99.90
9305;DHT22;4690;52.422;13.486;2023-02-28T08:56:27;5.80;99.90
9305;DHT22;4690;52.422;13.486;2023-02-28T08:58:56;5.80;99.90
9305;DHT22;4690;52.422;13.486;2023-02-28T09:01:24;5.80;99.90
9305;DHT22;4690;52.422;13.486;2023-02-28T09:03:53;5.50;99.90
9305;DHT22;4690;52.422;13.486;2023-02-28T09:06:22;5.50;99.90
9305;DHT22;4690;52.422;13.486;2023-02-28T09:08:50;5.60;99.90
9305;DHT22;4690;52.422;13.486;2023-02-28T09:11:16;5.50;99.90
9305;DHT22;4690;52.422;13.486;2023-02-28T09:13:44;5.70;99.90
9305;DHT22;4690;52.422;13.486;2023-02-28T09:16:12;5.80;99.90
9305;DHT22;4690;52.422;13.486;2023-02-28T09:18:40;5.50;99.90
9305;DHT22;4690;52.422;13.486;2023-02-28T09:21:07;5.70;99.90
9305;DHT22;4690;52.422;13.486;2023-02-28T09:23:40;5.70;99.90
9305;DHT22;4690;52.422;13.486;2023-02-28T09:26:07;5.70;99.90
9305;DHT22;4690;52.422;13.486;2023-02-28T09:28:33;5.40;99.90
9305;DHT22;4690;52.422;13.486;2023-02-28T09:30:59;5.70;99.90
9305;DHT22;4690;52.422;13.486;2023-02-28T09:33:25;5.80;99.90
9305;DHT22;4690;52.422;13.486;2023-02-28T09:35:58;5.40;99.90
9305;DHT22;4690;52.422;13.486;2023-02-28T09:38:26;5.10;99.90
9305;DHT22;4690;52.422;13.486;2023-02-28T09:40:59;5.10;99.90
9305;DHT22;4690;52.422;13.486;2023-02-28T09:43:40;5.50;99.90
9305;DHT22;4690;52.422;13.486;2023-02-28T09:46:34;5.50;99.90
9305;DHT22;4690;52.422;13.486;2023-02-28T09:49:10;5.40;99.90
9305;DHT22;4690;52.422;13.486;2023-02-28T09:54:22;5.30;99.90
9305;DHT22;4690;52.422;13.486;2023-02-28T09:56:59;5.40;99.90
9305;DHT22;4690;52.422;13.486;2023-02-28T09:59:57;5.40;99.90
9305;DHT22;4690;52.422;13.486;2023-02-28T10:05:28;5.30;99.90
9305;DHT22;4690;52.422;13.486;2023-02-28T10:10:47;5.20;99.90
9305;DHT22;4690;52.422;13.486;2023-02-28T10:13:36;4.90;99.90
9305;DHT22;4690;52.422;13.486;2023-02-28T10:16:19;4.90;99.90
9305;DHT22;4690;52.422;13.486;2023-02-28T10:18:56;4.90;99.90
9305;DHT22;4690;52.422;13.486;2023-02-28T10:21:29;4.90;99.90
9305;DHT22;4690;52.422;13.486;2023-02-28T10:24:42;4.80;99.90
9305;DHT22;4690;52.422;13.486;2023-02-28T10:29:59;4.90;99.90
9305;DHT22;4690;52.422;13.486;2023-02-28T10:32:30;4.80;99.90
9305;DHT22;4690;52.422;13.486;2023-02-28T10:37:46;4.80;99.90
9305;DHT22;4690;52.422;13.486;2023-02-28T10:45:26;5.00;99.90
9305;DHT22;4690;52.422;13.486;2023-02-28T10:48:23;4.90;99.90
9305;DHT22;4690;52.422;13.486;2023-02-28T10:50:55;5.10;99.90
9305;DHT22;4690;52.422;13.486;2023-02-28T10:56:14;5.40;99.90
9305;DHT22;4690;52.422;13.486;2023-02-28T10:59:08;5.40;99.90
9305;DHT22;4690;52.422;13.486;2023-02-28T11:01:52;5.40;99.90
9305;DHT22;4690;52.422;13.486;2023-02-28T11:07:17;5.70;99.90
9305;DHT22;4690;52.422;13.486;2023-02-28T11:09:48;5.70;99.90
9305;DHT22;4690;52.422;13.486;2023-02-28T11:12:42;5.40;99.90
9305;DHT22;4690;52.422;13.486;2023-02-28T11:15:26;5.80;99.90
9305;DHT22;4690;52.422;13.486;2023-02-28T11:20:38;6.00;99.70
9305;DHT22;4690;52.422;13.486;2023-02-28T11:23:05;6.60;99.90
9305;DHT22;4690;52.422;13.486;2023-02-28T11:25:39;7.00;99.90
9305;DHT22;4690;52.422;13.486;2023-02-28T11:28:22;6.90;99.20
9305;DHT22;4690;52.422;13.486;2023-02-28T11:38:47;7.20;98.50
9305;DHT22;4690;52.422;13.486;2023-02-28T11:44:23;7.70;98.50
9305;DHT22;4690;52.422;13.486;2023-02-28T11:46:58;7.80;96.90
9305;DHT22;4690;52.422;13.486;2023-02-28T11:55:23;7.60;96.80
9305;DHT22;4690;52.422;13.486;2023-02-28T11:58:19;7.70;96.70
9305;DHT22;4690;52.422;13.486;2023-02-28T12:01:27;8.00;98.00
9305;DHT22;4690;52.422;13.486;2023-02-28T12:10:23;8.20;96.30
9305;DHT22;4690;52.422;13.486;2023-02-28T12:13:16;8.40;97.90
9305;DHT22;4690;52.422;13.486;2023-02-28T12:19:07;7.80;96.90
9305;DHT22;4690;52.422;13.486;2023-02-28T12:22:31;8.30;95.80
9305;DHT22;4690;52.422;13.486;2023-02-28T12:25:22;8.00;95.70
9305;DHT22;4690;52.422;13.486;2023-02-28T12:28:03;7.40;95.80
9305;DHT22;4690;52.422;13.486;2023-02-28T12:30:35;8.00;96.90
9305;DHT22;4690;52.422;13.486;2023-02-28T12:33:12;8.40;96.70
9305;DHT22;4690;52.422;13.486;2023-02-28T12:35:51;8.50;95.70
9305;DHT22;4690;52.422;13.486;2023-02-28T12:38:22;8.00;95.30
9305;DHT22;4690;52.422;13.486;2023-02-28T12:41:00;7.90;95.40
9305;DHT22;4690;52.422;13.486;2023-02-28T12:43:37;7.80;97.20
9305;DHT22;4690;52.422;13.486;2023-02-28T12:46:23;8.10;95.90
9305;DHT22;4690;52.422;13.486;2023-02-28T12:48:59;8.30;96.50
9305;DHT22;4690;52.422;13.486;2023-02-28T12:51:32;8.20;95.00
9305;DHT22;4690;52.422;13.486;2023-02-28T12:57:09;8.50;95.10
9305;DHT22;4690;52.422;13.486;2023-02-28T12:59:40;8.50;95.00
9305;DHT22;4690;52.422;13.486;2023-02-28T13:05:50;8.20;94.40
9305;DHT22;4690;52.422;13.486;2023-02-28T13:11:29;8.10;94.40
9305;DHT22;4690;52.422;13.486;2023-02-28T13:14:03;8.10;95.50
9305;DHT22;4690;52.422;13.486;2023-02-28T13:16:57;8.00;94.30
9305;DHT22;4690;52.422;13.486;2023-02-28T13:19:29;7.80;94.80
9305;DHT22;4690;52.422;13.486;2023-02-28T13:21:58;8.20;94.10
9305;DHT22;4690;52.422;13.486;2023-02-28T13:24:45;8.00;95.80
9305;DHT22;4690;52.422;13.486;2023-02-28T13:29:44;8.60;94.60
9305;DHT22;4690;52.422;13.486;2023-02-28T13:34:37;8.90;95.10
9305;DHT22;4690;52.422;13.486;2023-02-28T13:56:00;7.80;95.00
9305;DHT22;4690;52.422;13.486;2023-02-28T13:58:48;7.90;94.70
9305;DHT22;4690;52.422;13.486;2023-02-28T14:02:31;7.30;93.80
9305;DHT22;4690;52.422;13.486;2023-02-28T14:05:06;7.50;95.00
9305;DHT22;4690;52.422;13.486;2023-02-28T14:07:53;7.20;94.50
9305;DHT22;4690;52.422;13.486;2023-02-28T14:16:03;7.30;95.40
9305;DHT22;4690;52.422;13.486;2023-02-28T14:18:36;7.50;94.80
9305;DHT22;4690;52.422;13.486;2023-02-28T14:27:22;7.20;94.60
9305;DHT22;4690;52.422;13.486;2023-02-28T14:36:10;7.20;94.60
9305;DHT22;4690;52.422;13.486;2023-02-28T14:39:05;7.20;94.40
9305;DHT22;4690;52.422;13.486;2023-02-28T14:41:39;7.00;94.50
9305;DHT22;4690;52.422;13.486;2023-02-28T14:44:32;7.10;94.60
9305;DHT22;4690;52.422;13.486;2023-02-28T14:47:00;7.30;95.10
9305;DHT22;4690;52.422;13.486;2023-02-28T14:49:42;6.90;94.50
9305;DHT22;4690;52.422;13.486;2023-02-28T14:54:55;7.00;96.00
9305;DHT22;4690;52.422;13.486;2023-02-28T14:57:26;7.20;95.00
9305;DHT22;4690;52.422;13.486;2023-02-28T15:00:13;7.10;95.20
9305;DHT22;4690;52.422;13.486;2023-02-28T15:02:42;7.00;95.00
9305;DHT22;4690;52.422;13.486;2023-02-28T15:07:47;7.20;95.90
9305;DHT22;4690;52.422;13.486;2023-02-28T15:10:23;6.90;95.80
9305;DHT22;4690;52.422;13.486;2023-02-28T15:12:56;6.80;95.40
9305;DHT22;4690;52.422;13.486;2023-02-28T15:15:34;6.70;96.30
9305;DHT22;4690;52.422;13.486;2023-02-28T15:18:39;6.70;95.90
9305;DHT22;4690;52.422;13.486;2023-02-28T15:26:32;6.50;97.10
9305;DHT22;4690;52.422;13.486;2023-02-28T15:29:05;6.20;96.10
9305;DHT22;4690;52.422;13.486;2023-02-28T15:31:43;6.00;96.50
9305;DHT22;4690;52.422;13.486;2023-02-28T15:34:25;6.00;96.70
9305;DHT22;4690;52.422;13.486;2023-02-28T15:36:54;5.90;96.50
9305;DHT22;4690;52.422;13.486;2023-02-28T15:39:23;6.10;96.70
9305;DHT22;4690;52.422;13.486;2023-02-28T15:42:17;5.90;97.00
9305;DHT22;4690;52.422;13.486;2023-02-28T15:44:46;5.80;97.20
9305;DHT22;4690;52.422;13.486;2023-02-28T15:47:26;5.70;97.60
9305;DHT22;4690;52.422;13.486;2023-02-28T15:50:02;5.70;97.30
9305;DHT22;4690;52.422;13.486;2023-02-28T15:52:44;5.50;97.10
9305;DHT22;4690;52.422;13.486;2023-02-28T15:55:22;5.50;97.70
9305;DHT22;4690;52.422;13.486;2023-02-28T15:57:54;5.50;97.50
9305;DHT22;4690;52.422;13.486;2023-02-28T16:00:26;5.50;97.90
9305;DHT22;4690;52.422;13.486;2023-02-28T16:02:53;5.40;98.40
9305;DHT22;4690;52.422;13.486;2023-02-28T16:05:31;5.30;98.50
9305;DHT22;4690;52.422;13.486;2023-02-28T16:08:11;5.20;97.70
9305;DHT22;4690;52.422;13.486;2023-02-28T16:10:40;5.20;98.70
9305;DHT22;4690;52.422;13.486;2023-02-28T16:13:06;5.10;98.60
9305;DHT22;4690;52.422;13.486;2023-02-28T16:15:37;5.10;98.70
9305;DHT22;4690;52.422;13.486;2023-02-28T16:18:11;5.00;98.90
9305;DHT22;4690;52.422;13.486;2023-02-28T16:20:37;4.90;99.30
9305;DHT22;4690;52.422;13.486;2023-02-28T16:23:04;4.90;99.60
9305;DHT22;4690;52.422;13.486;2023-02-28T16:25:36;4.80;99.10
9305;DHT22;4690;52.422;13.486;2023-02-28T16:28:04;4.80;99.90
9305;DHT22;4690;52.422;13.486;2023-02-28T16:30:38;4.70;99.80
9305;DHT22;4690;52.422;13.486;2023-02-28T16:33:04;4.60;99.70
9305;DHT22;4690;52.422;13.486;2023-02-28T16:35:29;4.60;99.90
9305;DHT22;4690;52.422;13.486;2023-02-28T16:37:55;4.60;99.90
9305;DHT22;4690;52.422;13.486;2023-02-28T16:40:23;4.50;99.90
9305;DHT22;4690;52.422;13.486;2023-02-28T16:42:53;4.40;99.90
9305;DHT22;4690;52.422;13.486;2023-02-28T16:45:27;4.30;99.90
9305;DHT22;4690;52.422;13.486;2023-02-28T16:47:55;4.40;99.90
9305;DHT22;4690;52.422;13.486;2023-02-28T16:50:24;4.30;99.90
9305;DHT22;4690;52.422;13.486;2023-02-28T16:52:52;4.20;99.90
9305;DHT22;4690;52.422;13.486;2023-02-28T16:55:20;4.10;99.90
9305;DHT22;4690;52.422;13.486;2023-02-28T16:57:57;4.00;99.90
9305;DHT22;4690;52.422;13.486;2023-02-28T17:00:26;3.80;99.90
9305;DHT22;4690;52.422;13.486;2023-02-28T17:02:54;3.90;99.90
9305;DHT22;4690;52.422;13.486;2023-02-28T17:05:21;3.90;99.90
9305;DHT22;4690;52.422;13.486;2023-02-28T17:07:48;3.70;99.90
9305;DHT22;4690;52.422;13.486;2023-02-28T17:10:18;3.50;99.90
9305;DHT22;4690;52.422;13.486;2023-02-28T17:12:45;3.40;99.90
9305;DHT22;4690;52.422;13.486;2023-02-28T17:15:12;3.30;99.90
9305;DHT22;4690;52.422;13.486;2023-02-28T17:17:41;3.20;99.90
9305;DHT22;4690;52.422;13.486;2023-02-28T17:20:18;3.10;99.90
9305;DHT22;4690;52.422;13.486;2023-02-28T17:22:48;3.10;99.90
9305;DHT22;4690;52.422;13.486;2023-02-28T17:25:15;3.00;99.90
9305;DHT22;4690;52.422;13.486;2023-02-28T17:27:42;2.90;99.90
9305;DHT22;4690;52.422;13.486;2023-02-28T17:30:18;2.70;99.90
9305;DHT22;4690;52.422;13.486;2023-02-28T17:32:46;2.70;99.90
9305;DHT22;4690;52.422;13.486;2023-02-28T17:35:12;2.50;99.90
9305;DHT22;4690;52.422;13.486;2023-02-28T17:37:38;2.50;99.90
9305;DHT22;4690;52.422;13.486;2023-02-28T17:40:06;2.30;99.90
9305;DHT22;4690;52.422;13.486;2023-02-28T17:42:37;2.30;99.90
9305;DHT22;4690;52.422;13.486;2023-02-28T17:45:03;2.10;99.90
9305;DHT22;4690;52.422;13.486;2023-02-28T17:47:29;2.10;99.90
9305;DHT22;4690;52.422;13.486;2023-02-28T17:49:55;2.00;99.90
9305;DHT22;4690;52.422;13.486;2023-02-28T17:52:20;1.90;99.90
9305;DHT22;4690;52.422;13.486;2023-02-28T17:54:47;1.80;99.90
9305;DHT22;4690;52.422;13.486;2023-02-28T17:57:16;1.70;99.90
9305;DHT22;4690;52.422;13.486;2023-02-28T17:59:42;1.80;99.90
9305;DHT22;4690;52.422;13.486;2023-02-28T18:02:11;1.70;99.90
9305;DHT22;4690;52.422;13.486;2023-02-28T18:04:38;1.60;99.90
9305;DHT22;4690;52.422;13.486;2023-02-28T18:07:05;1.50;99.90
9305;DHT22;4690;52.422;13.486;2023-02-28T18:09:32;1.50;99.90
9305;DHT22;4690;52.422;13.486;2023-02-28T18:11:58;1.40;99.90
9305;DHT22;4690;52.422;13.486;2023-02-28T18:14:24;1.40;99.90
9305;DHT22;4690;52.422;13.486;2023-02-28T18:16:52;1.30;99.90
9305;DHT22;4690;52.422;13.486;2023-02-28T18:19:19;1.30;99.90
9305;DHT22;4690;52.422;13.486;2023-02-28T18:21:48;1.20;99.90
9305;DHT22;4690;52.422;13.486;2023-02-28T18:24:19;1.10;99.90
9305;DHT22;4690;52.422;13.486;2023-02-28T18:26:47;1.10;99.90
9305;DHT22;4690;52.422;13.486;2023-02-28T18:29:31;1.00;99.90
9305;DHT22;4690;52.422;13.486;2023-02-28T18:31:58;0.90;99.90
9305;DHT22;4690;52.422;13.486;2023-02-28T18:34:26;0.90;99.90
9305;DHT22;4690;52.422;13.486;2023-02-28T18:36:53;0.80;99.90
9305;DHT22;4690;52.422;13.486;2023-02-28T18:39:18;0.80;99.90
9305;DHT22;4690;52.422;13.486;2023-02-28T18:41:44;0.80;99.90
9305;DHT22;4690;52.422;13.486;2023-02-28T18:44:10;0.80;99.90
9305;DHT22;4690;52.422;13.486;2023-02-28T18:46:38;0.70;99.90
9305;DHT22;4690;52.422;13.486;2023-02-28T18:49:04;0.60;99.90
9305;DHT22;4690;52.422;13.486;2023-02-28T18:51:30;0.50;99.90
9305;DHT22;4690;52.422;13.486;2023-02-28T18:53:57;0.50;99.90
9305;DHT22;4690;52.422;13.486;2023-02-28T18:56:25;0.50;99.90
9305;DHT22;4690;52.422;13.486;2023-02-28T18:58:51;0.50;99.90